createdAt,value
2023-04-02T00:01:37.896Z,5.30
2023-04-02T00:06:44.879Z,5.29
2023-04-02T00:11:49.748Z,5.30
2023-04-02T00:16:56.451Z,5.22
2023-04-02T00:22:01.596Z,5.17
2023-04-02T00:27:04.349Z,5.17
2023-04-02T00:32:20.631Z,5.13
2023-04-02T00:37:28.194Z,5.12
2023-04-02T00:42:32.203Z,4.99
2023-04-02T00:47:40.044Z,4.93
2023-04-02T00:52:44.929Z,4.90
2023-04-02T00:57:49.630Z,4.88
2023-04-02T01:03:35.219Z,4.92
2023-04-02T01:08:50.178Z,4.79
2023-04-02T01:14:03.136Z,4.88
2023-04-02T01:19:27.287Z,4.90
2023-04-02T01:24:33.066Z,4.88
2023-04-02T01:29:39.404Z,4.80
2023-04-02T01:34:44.765Z,4.69
2023-04-02T01:40:09.249Z,4.71
2023-04-02T01:45:15.538Z,4.71
2023-04-02T01:50:31.426Z,4.68
2023-04-02T01:55:40.253Z,4.51
2023-04-02T02:00:48.999Z,4.49
2023-04-02T02:05:52.093Z,4.42
2023-04-02T02:10:54.667Z,4.36
2023-04-02T02:16:00.383Z,4.32
2023-04-02T02:21:06.311Z,4.24
2023-04-02T02:26:09.511Z,4.30
2023-04-02T02:31:19.480Z,4.28
2023-04-02T02:36:26.152Z,4.36
2023-04-02T02:41:34.443Z,4.23
2023-04-02T02:46:41.587Z,4.14
2023-04-02T02:51:49.147Z,3.97
2023-04-02T02:56:55.379Z,3.93
2023-04-02T03:02:00.648Z,3.87
2023-04-02T03:07:06.123Z,3.81
2023-04-02T03:12:25.098Z,3.72
2023-04-02T03:17:35.765Z,3.64
2023-04-02T03:22:42.404Z,3.49
2023-04-02T03:27:48.459Z,3.43
2023-04-02T03:32:55.706Z,3.37
2023-04-02T03:38:03.207Z,3.27
2023-04-02T03:43:14.449Z,3.22
2023-04-02T03:48:26.548Z,3.14
2023-04-02T03:53:32.191Z,3.13
2023-04-02T03:58:41.040Z,2.99
2023-04-02T04:03:48.046Z,2.97
2023-04-02T04:08:54.678Z,2.93
2023-04-02T04:14:00.952Z,2.83
2023-04-02T04:19:11.268Z,2.92
2023-04-02T04:24:21.767Z,2.65
2023-04-02T04:29:40.711Z,2.65
2023-04-02T04:34:51.434Z,2.60
2023-04-02T04:39:58.746Z,2.54
2023-04-02T04:45:07.458Z,2.38
2023-04-02T04:50:16.913Z,2.46
2023-04-02T04:55:27.762Z,2.24
2023-04-02T05:00:42.376Z,2.14
2023-04-02T05:05:47.846Z,2.13
2023-04-02T05:10:53.113Z,2.04
2023-04-02T05:16:05.634Z,1.98
2023-04-02T05:21:20.836Z,1.95
2023-04-02T05:26:30.959Z,1.90
2023-04-02T05:31:41.208Z,1.87
2023-04-02T05:36:48.842Z,1.90
2023-04-02T05:42:01.259Z,1.95
2023-04-02T05:47:09.087Z,2.01
2023-04-02T05:52:18.558Z,2.06
2023-04-02T05:57:39.473Z,2.09
2023-04-02T06:02:54.926Z,2.20
2023-04-02T06:08:04.855Z,2.24
2023-04-02T06:13:09.466Z,2.08
2023-04-02T06:18:17.635Z,2.07
2023-04-02T06:23:30.704Z,2.08
2023-04-02T06:28:40.494Z,2.09
2023-04-02T06:33:44.348Z,2.09
2023-04-02T06:38:49.877Z,2.13
2023-04-02T06:43:56.926Z,2.00
2023-04-02T06:49:06.470Z,2.08
2023-04-02T06:54:15.326Z,2.01
2023-04-02T06:59:18.883Z,2.07
2023-04-02T07:04:22.076Z,2.09
2023-04-02T07:09:26.763Z,2.19
2023-04-02T07:14:29.733Z,2.35
2023-04-02T07:19:32.426Z,2.65
2023-04-02T07:24:36.490Z,2.78
2023-04-02T07:29:42.559Z,3.00
2023-04-02T07:34:45.435Z,3.39
2023-04-02T07:39:49.346Z,4.15
2023-04-02T07:44:53.062Z,4.21
2023-04-02T07:49:55.618Z,4.03
2023-04-02T07:54:59.609Z,3.71
2023-04-02T08:00:04.681Z,4.00
2023-04-02T08:05:08.891Z,4.15
2023-04-02T08:10:13.591Z,4.11
2023-04-02T08:15:17.442Z,3.86
2023-04-02T08:20:22.380Z,4.11
2023-04-02T08:25:26.544Z,4.64
2023-04-02T08:30:29.303Z,4.18
2023-04-02T08:35:32.168Z,4.29
2023-04-02T08:40:39.028Z,4.70
2023-04-02T08:45:52.867Z,4.70
2023-04-02T08:50:55.587Z,4.78
2023-04-02T08:56:05.547Z,5.56
2023-04-02T09:01:12.937Z,9.03
2023-04-02T09:06:19.801Z,11.00
2023-04-02T09:11:27.276Z,12.14
2023-04-02T09:16:41.161Z,12.40
2023-04-02T09:21:46.946Z,13.38
2023-04-02T09:26:50.949Z,11.92
2023-04-02T09:32:03.286Z,11.85
2023-04-02T09:37:09.564Z,12.88
2023-04-02T09:42:33.973Z,12.33
2023-04-02T09:47:37.249Z,11.65
2023-04-02T09:52:39.936Z,12.52
2023-04-02T09:57:44.421Z,12.76
2023-04-02T10:02:48.146Z,12.82
2023-04-02T10:07:53.146Z,12.27
2023-04-02T10:13:02.375Z,11.76
2023-04-02T10:18:12.369Z,11.64
2023-04-02T10:23:17.703Z,11.17
2023-04-02T10:28:34.437Z,11.21
2023-04-02T10:33:38.598Z,11.33
2023-04-02T10:38:45.026Z,11.41
2023-04-02T10:44:27.552Z,11.82
2023-04-02T10:49:40.977Z,12.16
2023-04-02T10:54:50.141Z,11.90
2023-04-02T11:00:01.237Z,11.12
2023-04-02T11:05:15.585Z,12.78
2023-04-02T11:10:21.061Z,12.12
2023-04-02T11:15:25.495Z,12.38
2023-04-02T11:21:02.903Z,12.49
2023-04-02T11:26:47.336Z,11.69
2023-04-02T11:32:12.121Z,12.51
2023-04-02T11:37:33.320Z,11.37
2023-04-02T11:42:37.000Z,11.47
2023-04-02T11:47:41.034Z,11.85
2023-04-02T11:52:53.626Z,11.36
2023-04-02T11:58:27.148Z,11.82
2023-04-02T12:04:02.455Z,12.69
2023-04-02T12:09:15.923Z,11.92
2023-04-02T12:14:42.860Z,11.73
2023-04-02T12:19:50.397Z,12.13
2023-04-02T12:24:57.288Z,12.34
2023-04-02T12:30:15.489Z,12.41
2023-04-02T12:35:30.331Z,12.79
2023-04-02T12:40:32.934Z,12.53
2023-04-02T12:45:36.620Z,12.65
2023-04-02T12:50:41.810Z,12.00
2023-04-02T12:55:48.249Z,12.31
2023-04-02T13:00:50.955Z,12.21
2023-04-02T13:05:58.056Z,12.63
2023-04-02T13:11:02.583Z,12.03
2023-04-02T13:16:26.916Z,12.62
2023-04-02T13:21:32.171Z,12.66
2023-04-02T13:26:34.807Z,12.32
2023-04-02T13:31:37.462Z,12.21
2023-04-02T13:36:42.419Z,13.06
2023-04-02T13:41:46.900Z,12.95
2023-04-02T13:46:49.500Z,12.65
2023-04-02T13:51:57.852Z,12.53
2023-04-02T13:57:00.622Z,13.21
2023-04-02T14:02:07.572Z,13.11
2023-04-02T14:07:30.040Z,13.01
2023-04-02T14:12:45.392Z,12.69
2023-04-02T14:17:59.484Z,12.68
2023-04-02T14:23:21.366Z,12.58
2023-04-02T14:28:30.008Z,12.59
2023-04-02T14:33:44.321Z,13.00
2023-04-02T14:38:55.469Z,12.62
2023-04-02T14:44:02.049Z,12.53
2023-04-02T14:49:13.027Z,12.47
2023-04-02T14:54:28.972Z,12.12
2023-04-02T14:59:35.526Z,12.23
2023-04-02T15:04:42.919Z,12.07
2023-04-02T15:09:54.247Z,11.89
2023-04-02T15:15:03.556Z,12.78
2023-04-02T15:20:14.191Z,12.89
2023-04-02T15:25:28.919Z,12.87
2023-04-02T15:30:36.984Z,12.68
2023-04-02T15:35:48.502Z,12.53
2023-04-02T15:40:58.174Z,12.30
2023-04-02T15:46:10.320Z,12.16
2023-04-02T15:51:26.438Z,12.55
2023-04-02T15:56:41.316Z,12.62
2023-04-02T16:01:55.000Z,12.44
2023-04-02T16:07:12.377Z,13.33
2023-04-02T16:12:18.760Z,13.04
2023-04-02T16:17:27.401Z,12.31
2023-04-02T16:22:33.247Z,12.06
2023-04-02T16:27:43.071Z,12.20
2023-04-02T16:33:01.193Z,12.77
2023-04-02T16:38:15.324Z,12.66
2023-04-02T16:43:27.770Z,12.16
2023-04-02T16:48:42.029Z,11.94
2023-04-02T16:54:01.398Z,11.84
2023-04-02T16:59:19.733Z,11.49
2023-04-02T17:04:46.232Z,11.00
2023-04-02T17:09:51.477Z,10.42
2023-04-02T17:15:00.754Z,9.70
2023-04-02T17:20:03.404Z,9.27
2023-04-02T17:25:15.938Z,8.71
2023-04-02T17:30:24.716Z,8.35
2023-04-02T17:35:34.132Z,8.14
2023-04-02T17:40:44.062Z,7.83
2023-04-02T17:45:52.219Z,7.66
2023-04-02T17:51:03.902Z,7.41
2023-04-02T17:56:18.944Z,7.03
2023-04-02T18:01:31.235Z,6.78
2023-04-02T18:06:42.280Z,6.47
2023-04-02T18:11:52.582Z,6.17
2023-04-02T18:17:02.883Z,5.82
2023-04-02T18:22:14.440Z,5.51
2023-04-02T18:27:31.678Z,5.20
2023-04-02T18:33:00.496Z,4.88
2023-04-02T18:38:19.715Z,4.56
2023-04-02T18:43:32.496Z,4.33
2023-04-02T18:48:42.538Z,4.16
2023-04-02T18:53:45.473Z,3.98
2023-04-02T18:58:56.962Z,3.86
2023-04-02T19:04:04.924Z,3.70
2023-04-02T19:09:15.656Z,3.57
2023-04-02T19:14:20.680Z,3.39
2023-04-02T19:19:27.370Z,3.26
2023-04-02T19:24:41.389Z,3.13
2023-04-02T19:29:51.189Z,2.98
2023-04-02T19:34:59.748Z,2.82
2023-04-02T19:40:24.886Z,2.72
2023-04-02T19:45:38.933Z,2.63
2023-04-02T19:50:43.989Z,2.51
2023-04-02T19:55:47.501Z,2.49
2023-04-02T20:00:50.124Z,2.45
2023-04-02T20:05:54.469Z,2.38
2023-04-02T20:11:00.044Z,2.43
2023-04-02T20:16:04.593Z,2.56
2023-04-02T20:21:08.991Z,2.84
2023-04-02T20:26:12.722Z,2.98
2023-04-02T20:31:17.224Z,3.11
2023-04-02T20:36:21.667Z,3.15
2023-04-02T20:41:24.630Z,3.10
2023-04-02T20:46:27.215Z,3.07
2023-04-02T20:51:31.445Z,3.08
2023-04-02T20:56:36.020Z,3.04
2023-04-02T21:01:38.658Z,3.05
2023-04-02T21:06:43.238Z,3.02
2023-04-02T21:11:46.345Z,3.03
2023-04-02T21:16:48.900Z,2.96
2023-04-02T21:21:56.039Z,3.01
2023-04-02T21:26:59.592Z,3.11
2023-04-02T21:32:05.708Z,3.03
2023-04-02T21:37:18.421Z,2.88
2023-04-02T21:42:21.135Z,2.72
2023-04-02T21:47:24.334Z,2.75
2023-04-02T21:52:28.248Z,2.63
2023-04-02T21:57:30.900Z,2.49
2023-04-02T22:02:33.560Z,2.38
2023-04-02T22:07:37.487Z,2.31
2023-04-02T22:12:40.271Z,2.22
2023-04-02T22:17:42.882Z,2.19
2023-04-02T22:22:46.802Z,2.11
2023-04-02T22:27:51.874Z,2.07
2023-04-02T22:32:54.507Z,1.98
2023-04-02T22:37:58.531Z,1.90
2023-04-02T22:43:01.172Z,1.86
2023-04-02T22:48:03.817Z,1.78
2023-04-02T22:53:07.789Z,1.67
2023-04-02T22:58:10.725Z,1.68
2023-04-02T23:03:13.354Z,1.63
2023-04-02T23:08:17.281Z,1.59
2023-04-02T23:13:19.880Z,1.51
2023-04-02T23:18:22.693Z,1.48
2023-04-02T23:23:27.018Z,1.38
2023-04-02T23:28:29.584Z,1.40
2023-04-02T23:33:32.456Z,1.32
2023-04-02T23:38:36.441Z,1.32
2023-04-02T23:43:40.506Z,1.25
2023-04-02T23:48:44.504Z,1.14
2023-04-02T23:53:48.886Z,1.09
2023-04-02T23:58:51.671Z,1.13
